createdAt,value
2022-09-01T00:00:03.271Z,78.90
2022-09-01T00:01:02.763Z,79.21
2022-09-01T00:02:02.400Z,79.61
2022-09-01T00:03:02.872Z,79.21
2022-09-01T00:04:02.565Z,80.15
2022-09-01T00:05:02.484Z,80.35
2022-09-01T00:06:02.295Z,79.04
2022-09-01T00:07:02.775Z,79.14
2022-09-01T00:08:02.990Z,79.85
2022-09-01T00:09:03.145Z,79.85
2022-09-01T00:10:02.854Z,81.10
2022-09-01T00:11:03.272Z,81.10
2022-09-01T00:12:03.056Z,80.79
2022-09-01T00:13:03.439Z,80.29
2022-09-01T00:14:03.282Z,80.69
2022-09-01T00:15:03.152Z,80.19
2022-09-01T00:16:03.681Z,80.29
2022-09-01T00:17:03.225Z,80.49
2022-09-01T00:18:03.681Z,80.29
2022-09-01T00:19:03.451Z,80.59
2022-09-01T00:20:03.221Z,81.60
2022-09-01T00:21:03.551Z,79.88
2022-09-01T00:22:02.485Z,79.88
2022-09-01T00:23:02.900Z,79.58
2022-09-01T00:24:02.440Z,79.17
2022-09-01T00:25:02.420Z,78.77
2022-09-01T00:26:02.987Z,79.99
2022-09-01T00:27:02.982Z,79.17
2022-09-01T00:28:02.849Z,78.88
2022-09-01T00:29:03.128Z,79.08
2022-09-01T00:30:02.910Z,78.88
2022-09-01T00:31:03.402Z,79.08
2022-09-01T00:32:03.198Z,78.71
2022-09-01T00:33:03.097Z,78.81
2022-09-01T00:34:03.585Z,79.01
2022-09-01T00:35:03.368Z,78.81
2022-09-01T00:36:03.550Z,78.50
2022-09-01T00:37:03.359Z,78.30
2022-09-01T00:38:03.824Z,78.20
2022-09-01T00:39:03.316Z,78.00
2022-09-01T00:40:03.790Z,79.21
2022-09-01T00:41:03.565Z,78.41
2022-09-01T00:42:03.106Z,78.81
2022-09-01T00:43:03.569Z,78.50
2022-09-01T00:44:03.008Z,78.71
2022-09-01T00:45:03.519Z,78.30
2022-09-01T00:46:03.047Z,78.81
2022-09-01T00:47:02.840Z,79.01
2022-09-01T00:48:03.005Z,79.01
2022-09-01T00:49:03.195Z,80.02
2022-09-01T00:50:03.108Z,79.72
2022-09-01T00:51:02.873Z,80.43
2022-09-01T00:52:03.314Z,80.02
2022-09-01T00:53:03.460Z,80.43
2022-09-01T00:54:03.277Z,80.12
2022-09-01T00:55:03.751Z,79.92
2022-09-01T00:56:03.288Z,80.32
2022-09-01T00:57:03.019Z,80.63
2022-09-01T00:58:03.248Z,80.26
2022-09-01T00:59:02.769Z,80.26
2022-09-01T01:00:03.246Z,80.87
2022-09-01T01:01:03.271Z,80.77
2022-09-01T01:02:03.543Z,80.16
2022-09-01T01:03:03.395Z,80.06
2022-09-01T01:04:03.932Z,80.06
2022-09-01T01:05:03.476Z,79.96
2022-09-01T01:06:03.769Z,79.96
2022-09-01T01:07:03.574Z,79.86
2022-09-01T01:08:03.897Z,79.96
2022-09-01T01:09:03.425Z,80.77
2022-09-01T01:10:03.969Z,81.17
2022-09-01T01:11:03.868Z,81.88
2022-09-01T01:12:03.875Z,82.39
2022-09-01T01:13:03.785Z,81.07
2022-09-01T01:14:03.660Z,80.87
2022-09-01T01:15:03.444Z,80.46
2022-09-01T01:16:03.907Z,79.96
2022-09-01T01:17:04.087Z,80.57
2022-09-01T01:18:03.859Z,80.00
2022-09-01T01:19:03.682Z,79.69
2022-09-01T01:20:03.786Z,79.90
2022-09-01T01:21:03.595Z,79.59
2022-09-01T01:22:03.335Z,79.39
2022-09-01T01:23:03.143Z,79.08
2022-09-01T01:24:02.945Z,78.78
2022-09-01T01:25:03.422Z,79.29
2022-09-01T01:26:02.967Z,79.79
2022-09-01T01:27:03.448Z,79.69
2022-09-01T01:28:03.225Z,79.59
2022-09-01T01:29:03.707Z,81.01
2022-09-01T01:30:03.245Z,80.30
2022-09-01T01:31:03.761Z,80.00
2022-09-01T01:32:03.106Z,80.80
2022-09-01T01:33:03.483Z,81.11
2022-09-01T01:34:03.023Z,80.60
2022-09-01T01:35:02.806Z,80.20
2022-09-01T01:36:03.302Z,80.20
2022-09-01T01:37:03.611Z,80.10
2022-09-01T01:38:03.397Z,80.00
2022-09-01T01:39:03.161Z,80.30
2022-09-01T01:40:03.674Z,80.20
2022-09-01T01:41:03.472Z,79.90
2022-09-01T01:42:03.012Z,80.10
2022-09-01T01:43:02.796Z,80.30
2022-09-01T01:44:02.625Z,80.10
2022-09-01T01:45:03.044Z,80.00
2022-09-01T01:46:03.279Z,79.90
2022-09-01T01:47:03.460Z,79.79
2022-09-01T01:48:03.291Z,80.60
2022-09-01T01:49:03.085Z,81.11
2022-09-01T01:50:03.628Z,80.94
2022-09-01T01:51:03.417Z,81.25
2022-09-01T01:52:03.804Z,81.96
2022-09-01T01:53:03.605Z,82.46
2022-09-01T01:54:03.412Z,82.26
2022-09-01T01:55:05.316Z,82.16
2022-09-01T01:56:03.583Z,82.46
2022-09-01T01:57:03.201Z,82.36
2022-09-01T01:58:02.774Z,82.67
2022-09-01T01:59:02.707Z,83.47
2022-09-01T02:00:03.212Z,82.97
2022-09-01T02:01:02.904Z,82.70
2022-09-01T02:02:03.476Z,82.46
2022-09-01T02:03:03.131Z,82.16
2022-09-01T02:04:02.975Z,82.16
2022-09-01T02:05:03.464Z,82.06
2022-09-01T02:06:03.279Z,83.41
2022-09-01T02:07:02.833Z,83.58
2022-09-01T02:08:02.467Z,83.07
2022-09-01T02:09:02.324Z,82.76
2022-09-01T02:10:02.806Z,83.17
2022-09-01T02:11:02.590Z,82.56
2022-09-01T02:12:03.124Z,82.26
2022-09-01T02:13:02.854Z,82.56
2022-09-01T02:14:02.659Z,82.36
2022-09-01T02:15:02.878Z,81.96
2022-09-01T02:16:02.724Z,81.76
2022-09-01T02:17:03.273Z,83.27
2022-09-01T02:18:05.242Z,81.55
2022-09-01T02:19:02.670Z,82.16
2022-09-01T02:20:03.178Z,81.65
2022-09-01T02:21:03.088Z,81.25
2022-09-01T02:22:02.678Z,81.05
2022-09-01T02:23:02.285Z,81.45
2022-09-01T02:24:02.072Z,81.55
2022-09-01T02:25:02.798Z,81.65
2022-09-01T02:26:18.045Z,81.35
2022-09-01T02:27:02.827Z,81.76
2022-09-01T02:28:02.224Z,81.15
2022-09-01T02:29:02.719Z,81.15
2022-09-01T02:30:02.523Z,81.25
2022-09-01T02:31:02.462Z,81.45
2022-09-01T02:32:03.011Z,81.35
2022-09-01T02:33:02.581Z,81.35
2022-09-01T02:34:02.467Z,82.26
2022-09-01T02:35:02.537Z,82.60
2022-09-01T02:36:02.472Z,81.99
2022-09-01T02:37:03.586Z,82.70
2022-09-01T02:38:03.434Z,82.70
2022-09-01T02:39:03.232Z,82.40
2022-09-01T02:40:03.442Z,82.30
2022-09-01T02:41:03.260Z,83.11
2022-09-01T02:42:02.693Z,83.21
2022-09-01T02:43:02.581Z,83.82
2022-09-01T02:44:02.117Z,83.61
2022-09-01T02:45:02.770Z,84.33
2022-09-01T02:46:02.468Z,84.97
2022-09-01T02:47:02.321Z,84.42
2022-09-01T02:48:02.358Z,84.12
2022-09-01T02:49:02.362Z,84.77
2022-09-01T02:50:02.884Z,85.38
2022-09-01T02:51:02.674Z,84.47
2022-09-01T02:52:02.457Z,84.36
2022-09-01T02:53:04.023Z,84.47
2022-09-01T02:54:02.721Z,84.06
2022-09-01T02:55:02.597Z,83.35
2022-09-01T02:56:03.052Z,82.84
2022-09-01T02:57:02.854Z,83.15
2022-09-01T02:58:03.345Z,83.35
2022-09-01T02:59:03.457Z,83.65
2022-09-01T03:00:03.515Z,82.64
2022-09-01T03:01:03.265Z,83.55
2022-09-01T03:02:03.111Z,83.76
2022-09-01T03:03:03.640Z,84.06
2022-09-01T03:04:03.426Z,83.76
2022-09-01T03:05:03.298Z,83.96
2022-09-01T03:06:03.731Z,84.36
2022-09-01T03:07:02.325Z,85.07
2022-09-01T03:08:02.487Z,83.86
2022-09-01T03:09:02.732Z,83.65
2022-09-01T03:10:02.724Z,85.27
2022-09-01T03:11:02.827Z,83.96
2022-09-01T03:12:02.626Z,83.55
2022-09-01T03:13:03.105Z,84.06
2022-09-01T03:14:03.091Z,82.78
2022-09-01T03:15:02.878Z,82.38
2022-09-01T03:16:02.637Z,82.68
2022-09-01T03:17:03.124Z,82.98
2022-09-01T03:18:03.629Z,83.09
2022-09-01T03:19:03.396Z,82.98
2022-09-01T03:20:03.225Z,82.58
2022-09-01T03:21:03.289Z,83.29
2022-09-01T03:22:02.845Z,83.29
2022-09-01T03:23:02.749Z,82.98
2022-09-01T03:24:02.906Z,85.01
2022-09-01T03:25:02.739Z,85.42
2022-09-01T03:26:03.316Z,84.10
2022-09-01T03:27:03.113Z,84.04
2022-09-01T03:28:03.597Z,83.12
2022-09-01T03:29:03.155Z,83.73
2022-09-01T03:30:03.636Z,83.33
2022-09-01T03:31:03.192Z,83.12
2022-09-01T03:32:02.802Z,84.64
2022-09-01T03:33:03.034Z,84.44
2022-09-01T03:34:02.822Z,82.92
2022-09-01T03:35:02.608Z,82.92
2022-09-01T03:36:03.081Z,82.62
2022-09-01T03:37:02.827Z,82.72
2022-09-01T03:38:03.307Z,83.12
2022-09-01T03:39:02.856Z,83.53
2022-09-01T03:40:02.770Z,85.66
2022-09-01T03:41:03.173Z,83.94
2022-09-01T03:42:03.342Z,85.09
2022-09-01T03:43:03.317Z,84.18
2022-09-01T03:44:03.182Z,83.47
2022-09-01T03:45:03.676Z,82.96
2022-09-01T03:46:03.587Z,83.17
2022-09-01T03:47:02.960Z,83.37
2022-09-01T03:48:02.874Z,82.96
2022-09-01T03:49:03.363Z,84.58
2022-09-01T03:50:03.162Z,83.57
2022-09-01T03:51:03.042Z,83.26
2022-09-01T03:52:03.371Z,83.17
2022-09-01T03:53:03.159Z,82.86
2022-09-01T03:54:03.713Z,84.72
2022-09-01T03:55:03.537Z,83.87
2022-09-01T03:56:03.326Z,87.02
2022-09-01T03:57:02.868Z,84.18
2022-09-01T03:58:02.772Z,84.48
2022-09-01T03:59:03.124Z,84.08
2022-09-01T04:00:02.818Z,83.47
2022-09-01T04:01:03.152Z,83.00
2022-09-01T04:02:02.675Z,83.31
2022-09-01T04:03:02.541Z,83.20
2022-09-01T04:04:02.263Z,83.10
2022-09-01T04:05:07.735Z,83.20
2022-09-01T04:06:02.436Z,83.31
2022-09-01T04:07:01.999Z,83.71
2022-09-01T04:08:01.801Z,85.84
2022-09-01T04:09:02.254Z,84.22
2022-09-01T04:10:01.841Z,83.71
2022-09-01T04:11:02.189Z,84.63
2022-09-01T04:12:02.427Z,83.20
2022-09-01T04:13:02.508Z,82.70
2022-09-01T04:14:02.621Z,82.64
2022-09-01T04:15:02.182Z,82.94
2022-09-01T04:16:02.727Z,83.34
2022-09-01T04:17:03.035Z,83.24
2022-09-01T04:18:02.863Z,83.14
2022-09-01T04:19:02.743Z,83.45
2022-09-01T04:20:03.236Z,83.65
2022-09-01T04:21:02.851Z,84.46
2022-09-01T04:22:02.392Z,84.46
2022-09-01T04:23:02.262Z,84.46
2022-09-01T04:24:02.080Z,84.36
2022-09-01T04:25:02.511Z,83.95
2022-09-01T04:26:02.313Z,84.36
2022-09-01T04:27:02.916Z,85.62
2022-09-01T04:28:02.702Z,85.68
2022-09-01T04:29:02.630Z,85.92
2022-09-01T04:30:02.437Z,88.97
2022-09-01T04:31:03.048Z,86.22
2022-09-01T04:32:02.031Z,85.11
2022-09-01T04:33:02.094Z,86.02
2022-09-01T04:34:02.292Z,85.11
2022-09-01T04:35:02.155Z,84.60
2022-09-01T04:36:01.997Z,85.21
2022-09-01T04:37:02.505Z,84.50
2022-09-01T04:38:02.033Z,84.30
2022-09-01T04:39:02.589Z,84.30
2022-09-01T04:40:02.102Z,84.91
2022-09-01T04:41:01.970Z,85.11
2022-09-01T04:42:02.649Z,85.21
2022-09-01T04:43:02.269Z,85.41
2022-09-01T04:44:02.699Z,86.43
2022-09-01T04:45:10.286Z,88.60
2022-09-01T04:46:02.441Z,87.69
2022-09-01T04:47:02.968Z,87.29
2022-09-01T04:48:02.566Z,87.79
2022-09-01T04:49:02.511Z,87.08
2022-09-01T04:50:02.465Z,86.88
2022-09-01T04:51:03.037Z,87.69
2022-09-01T04:52:02.662Z,86.47
2022-09-01T04:53:02.385Z,85.76
2022-09-01T04:54:02.273Z,85.76
2022-09-01T04:55:02.399Z,85.35
2022-09-01T04:56:02.435Z,84.95
2022-09-01T04:57:03.030Z,85.55
2022-09-01T04:58:05.124Z,85.55
2022-09-01T04:59:02.573Z,86.37
2022-09-01T05:00:02.915Z,87.08
2022-09-01T05:01:02.841Z,86.47
2022-09-01T05:02:03.533Z,86.27
2022-09-01T05:03:03.254Z,87.63
2022-09-01T05:04:03.921Z,88.54
2022-09-01T05:05:03.213Z,87.12
2022-09-01T05:06:03.023Z,87.12
2022-09-01T05:07:02.461Z,86.41
2022-09-01T05:08:03.064Z,87.23
2022-09-01T05:09:02.583Z,87.02
2022-09-01T05:10:02.663Z,86.41
2022-09-01T05:11:02.711Z,86.21
2022-09-01T05:12:03.018Z,86.92
2022-09-01T05:13:02.981Z,88.65
2022-09-01T05:14:02.826Z,87.53
2022-09-01T05:15:02.729Z,87.29
2022-09-01T05:16:03.247Z,88.04
2022-09-01T05:17:02.940Z,87.59
2022-09-01T05:18:03.569Z,86.51
2022-09-01T05:19:03.250Z,86.27
2022-09-01T05:20:03.192Z,86.16
2022-09-01T05:21:03.033Z,85.66
2022-09-01T05:22:02.688Z,86.37
2022-09-01T05:23:03.308Z,85.76
2022-09-01T05:24:03.000Z,85.76
2022-09-01T05:25:02.926Z,86.16
2022-09-01T05:26:02.928Z,87.12
2022-09-01T05:27:02.980Z,86.92
2022-09-01T05:28:03.098Z,86.61
2022-09-01T05:29:03.014Z,87.84
2022-09-01T05:30:03.555Z,87.23
2022-09-01T05:31:03.578Z,87.43
2022-09-01T05:32:02.370Z,88.13
2022-09-01T05:33:02.381Z,89.15
2022-09-01T05:34:02.313Z,89.56
2022-09-01T05:35:02.329Z,87.63
2022-09-01T05:36:02.273Z,86.82
2022-09-01T05:37:02.836Z,86.41
2022-09-01T05:38:02.759Z,87.32
2022-09-01T05:39:03.301Z,87.02
2022-09-01T05:40:03.400Z,86.31
2022-09-01T05:41:03.050Z,85.90
2022-09-01T05:42:02.975Z,85.60
2022-09-01T05:43:02.871Z,85.29
2022-09-01T05:44:03.495Z,86.10
2022-09-01T05:45:03.190Z,85.35
2022-09-01T05:46:07.042Z,85.76
2022-09-01T05:47:02.507Z,84.95
2022-09-01T05:48:02.535Z,84.84
2022-09-01T05:49:02.549Z,84.74
2022-09-01T05:50:02.538Z,85.25
2022-09-01T05:51:02.662Z,85.96
2022-09-01T05:52:02.585Z,85.96
2022-09-01T05:53:02.498Z,86.57
2022-09-01T05:54:02.989Z,86.68
2022-09-01T05:55:03.022Z,86.47
2022-09-01T05:56:02.776Z,86.88
2022-09-01T05:57:23.468Z,87.08
2022-09-01T05:58:03.025Z,86.77
2022-09-01T06:00:02.977Z,86.68
2022-09-01T06:01:03.060Z,87.49
2022-09-01T06:02:02.164Z,87.79
2022-09-01T06:03:02.337Z,87.49
2022-09-01T06:04:02.131Z,87.34
2022-09-01T06:05:02.350Z,87.55
2022-09-01T06:06:02.379Z,87.34
2022-09-01T06:07:07.036Z,87.04
2022-09-01T06:08:02.254Z,87.51
2022-09-01T06:09:02.211Z,87.10
2022-09-01T06:10:02.193Z,86.80
2022-09-01T06:11:02.338Z,87.51
2022-09-01T06:12:02.037Z,87.10
2022-09-01T06:13:01.854Z,86.96
2022-09-01T06:14:02.287Z,86.96
2022-09-01T06:15:02.342Z,86.45
2022-09-01T06:16:02.375Z,86.45
2022-09-01T06:17:02.099Z,86.51
2022-09-01T06:18:02.053Z,87.73
2022-09-01T06:19:02.349Z,87.18
2022-09-01T06:20:02.317Z,86.68
2022-09-01T06:21:01.969Z,86.13
2022-09-01T06:22:02.662Z,86.53
2022-09-01T06:23:02.694Z,86.29
2022-09-01T06:24:02.688Z,85.88
2022-09-01T06:25:03.276Z,85.99
2022-09-01T06:26:02.534Z,85.84
2022-09-01T06:27:02.225Z,85.74
2022-09-01T06:28:02.196Z,85.24
2022-09-01T06:29:02.106Z,85.39
2022-09-01T06:30:02.037Z,85.30
2022-09-01T06:31:01.995Z,84.65
2022-09-01T06:32:02.464Z,84.65
2022-09-01T06:33:02.150Z,85.02
2022-09-01T06:34:02.115Z,84.81
2022-09-01T06:35:02.741Z,84.51
2022-09-01T06:36:02.424Z,84.27
2022-09-01T06:37:03.061Z,83.56
2022-09-01T06:38:03.294Z,83.62
2022-09-01T06:39:03.218Z,83.52
2022-09-01T06:40:02.865Z,83.52
2022-09-01T06:41:02.944Z,83.48
2022-09-01T06:42:05.719Z,82.67
2022-09-01T06:43:02.642Z,82.03
2022-09-01T06:44:02.545Z,81.93
2022-09-01T06:45:02.437Z,81.59
2022-09-01T06:46:02.506Z,81.48
2022-09-01T06:47:02.870Z,81.18
2022-09-01T06:48:03.072Z,80.88
2022-09-01T06:49:02.920Z,80.74
2022-09-01T06:50:02.895Z,79.53
2022-09-01T06:51:21.056Z,78.92
2022-09-01T06:52:02.913Z,79.13
2022-09-01T06:54:02.673Z,78.39
2022-09-01T06:55:07.700Z,78.28
2022-09-01T06:56:02.879Z,77.58
2022-09-01T06:58:03.533Z,76.84
2022-09-01T06:59:02.755Z,77.04
2022-09-01T07:00:02.059Z,77.24
2022-09-01T07:01:02.210Z,77.70
2022-09-01T07:02:05.785Z,75.99
2022-09-01T07:03:03.204Z,76.20
2022-09-01T07:04:02.913Z,74.69
2022-09-01T07:05:02.978Z,74.55
2022-09-01T07:06:03.064Z,74.75
2022-09-01T07:07:54.148Z,74.35
2022-09-01T07:08:05.945Z,74.05
2022-09-01T07:12:25.310Z,73.81
2022-09-01T07:13:06.318Z,73.31
2022-09-01T07:14:18.204Z,72.67
2022-09-01T07:18:02.934Z,71.94
2022-09-01T07:19:02.908Z,72.03
2022-09-01T07:21:07.155Z,72.44
2022-09-01T07:22:35.153Z,72.13
2022-09-01T07:23:03.792Z,71.09
2022-09-01T07:24:11.127Z,71.40
2022-09-01T07:25:11.769Z,71.30
2022-09-01T07:26:02.930Z,71.90
2022-09-01T07:27:10.868Z,71.16
2022-09-01T07:28:03.148Z,72.37
2022-09-01T07:30:02.820Z,70.03
2022-09-01T07:31:48.910Z,69.53
2022-09-01T07:35:02.267Z,66.68
2022-09-01T07:38:48.239Z,68.49
2022-09-01T07:38:48.665Z,68.49
2022-09-01T07:44:03.022Z,67.12
2022-09-01T07:46:36.645Z,67.92
2022-09-01T07:48:02.468Z,65.59
2022-09-01T07:49:28.474Z,67.19
2022-09-01T07:50:24.538Z,66.19
2022-09-01T07:52:02.759Z,66.36
2022-09-01T07:53:02.761Z,67.76
2022-09-01T07:54:02.753Z,66.55
2022-09-01T07:55:02.815Z,68.02
2022-09-01T07:56:02.836Z,64.03
2022-09-01T07:57:03.502Z,64.12
2022-09-01T07:58:03.259Z,64.83
2022-09-01T07:59:03.335Z,65.92
2022-09-01T08:00:03.357Z,64.32
2022-09-01T08:01:03.460Z,63.42
2022-09-01T08:02:02.351Z,64.12
2022-09-01T08:03:02.891Z,65.19
2022-09-01T08:04:02.677Z,66.09
2022-09-01T08:05:02.554Z,66.19
2022-09-01T08:06:02.800Z,65.69
2022-09-01T08:07:02.789Z,63.17
2022-09-01T08:08:02.925Z,62.66
2022-09-01T08:09:02.816Z,61.57
2022-09-01T08:10:03.128Z,63.46
2022-09-01T08:11:04.596Z,63.86
2022-09-01T08:12:03.354Z,63.46
2022-09-01T08:13:03.319Z,61.46
2022-09-01T08:14:03.329Z,60.86
2022-09-01T08:16:07.470Z,61.26
2022-09-01T08:17:16.764Z,62.13
2022-09-01T08:18:02.800Z,62.53
2022-09-01T08:19:02.973Z,61.54
2022-09-01T08:20:03.238Z,62.43
2022-09-01T08:21:03.059Z,63.93
2022-09-01T08:22:03.156Z,61.21
2022-09-01T08:23:03.179Z,62.90
2022-09-01T08:24:03.192Z,61.90
2022-09-01T08:25:03.134Z,61.51
2022-09-01T08:26:03.268Z,61.60
2022-09-01T08:27:02.877Z,61.08
2022-09-01T08:28:02.943Z,59.88
2022-09-01T08:29:02.799Z,60.28
2022-09-01T08:30:02.767Z,59.28
2022-09-01T08:31:05.452Z,59.68
2022-09-01T08:32:02.550Z,59.78
2022-09-01T08:33:11.047Z,61.77
2022-09-01T08:34:02.688Z,60.78
2022-09-01T08:35:03.000Z,60.48
2022-09-01T08:36:02.820Z,59.68
2022-09-01T08:37:02.834Z,59.98
2022-09-01T08:38:02.743Z,62.15
2022-09-01T08:39:02.822Z,60.05
2022-09-01T08:40:04.077Z,58.95
2022-09-01T08:41:03.048Z,59.65
2022-09-01T08:42:03.059Z,60.55
2022-09-01T08:43:02.935Z,59.52
2022-09-01T08:44:03.493Z,60.02
2022-09-01T08:45:03.216Z,59.62
2022-09-01T08:46:03.265Z,58.92
2022-09-01T08:47:03.181Z,58.40
2022-09-01T08:48:51.017Z,58.20
2022-09-01T08:49:25.128Z,58.89
2022-09-01T08:50:06.170Z,59.89
2022-09-01T08:51:03.404Z,58.50
2022-09-01T08:52:03.416Z,59.39
2022-09-01T08:53:10.500Z,58.50
2022-09-01T08:54:03.452Z,58.70
2022-09-01T08:55:03.577Z,57.97
2022-09-01T08:56:03.681Z,57.57
2022-09-01T08:57:02.606Z,59.27
2022-09-01T08:58:02.520Z,57.77
2022-09-01T08:59:03.002Z,57.67
2022-09-01T09:00:02.986Z,58.54
2022-09-01T09:01:03.332Z,59.04
2022-09-01T09:02:02.218Z,58.74
2022-09-01T09:03:02.265Z,58.01
2022-09-01T09:04:02.234Z,60.30
2022-09-01T09:05:02.010Z,59.11
2022-09-01T09:06:02.109Z,59.68
2022-09-01T09:07:02.820Z,57.89
2022-09-01T09:08:10.065Z,60.08
2022-09-01T09:09:02.916Z,57.96
2022-09-01T09:10:02.818Z,55.77
2022-09-01T09:11:02.699Z,56.89
2022-09-01T09:12:02.430Z,56.67
2022-09-01T09:13:02.151Z,57.46
2022-09-01T09:14:02.160Z,57.56
2022-09-01T09:15:02.187Z,56.27
2022-09-01T09:16:09.465Z,55.38
2022-09-01T09:17:03.061Z,56.87
2022-09-01T09:18:02.970Z,57.06
2022-09-01T09:19:04.206Z,56.27
2022-09-01T09:20:02.822Z,58.13
2022-09-01T09:21:02.829Z,57.64
2022-09-01T09:22:02.453Z,56.34
2022-09-01T09:23:03.961Z,55.55
2022-09-01T09:24:02.050Z,56.04
2022-09-01T09:25:02.436Z,56.44
2022-09-01T09:26:03.499Z,55.55
2022-09-01T09:27:02.862Z,54.65
2022-09-01T09:28:02.803Z,55.44
2022-09-01T09:29:02.879Z,56.14
2022-09-01T09:30:07.578Z,55.55
2022-09-01T09:31:03.005Z,56.32
2022-09-01T09:32:02.561Z,54.23
2022-09-01T09:33:44.181Z,55.22
2022-09-01T09:34:02.426Z,53.33
2022-09-01T09:35:02.433Z,54.75
2022-09-01T09:36:02.335Z,55.62
2022-09-01T09:37:03.068Z,55.32
2022-09-01T09:38:03.094Z,55.32
2022-09-01T09:39:02.912Z,54.93
2022-09-01T09:40:03.248Z,55.02
2022-09-01T09:41:17.284Z,55.32
2022-09-01T09:42:02.751Z,54.72
2022-09-01T09:43:02.781Z,55.49
2022-09-01T09:44:02.281Z,54.21
2022-09-01T09:45:02.880Z,54.80
2022-09-01T09:46:02.935Z,54.40
2022-09-01T09:47:03.747Z,54.21
2022-09-01T09:48:02.874Z,54.80
2022-09-01T09:49:02.728Z,57.08
2022-09-01T09:50:05.275Z,55.36
2022-09-01T09:51:02.637Z,56.16
2022-09-01T09:52:03.232Z,54.68
2022-09-01T09:53:03.021Z,53.78
2022-09-01T09:54:03.036Z,55.47
2022-09-01T09:55:03.048Z,53.68
2022-09-01T09:56:03.061Z,53.78
2022-09-01T09:57:03.419Z,53.66
2022-09-01T09:58:02.847Z,53.36
2022-09-01T09:59:02.436Z,54.25
2022-09-01T10:00:02.848Z,54.85
2022-09-01T10:01:03.918Z,54.35
2022-09-01T10:02:02.220Z,55.71
2022-09-01T10:03:01.706Z,55.02
2022-09-01T10:04:01.742Z,54.13
2022-09-01T10:05:01.984Z,52.73
2022-09-01T10:06:02.012Z,54.72
2022-09-01T10:07:02.319Z,53.80
2022-09-01T10:08:02.071Z,54.00
2022-09-01T10:09:02.161Z,51.82
2022-09-01T10:10:02.019Z,52.31
2022-09-01T10:11:01.914Z,52.02
2022-09-01T10:12:02.998Z,51.42
2022-09-01T10:13:02.781Z,52.22
2022-09-01T10:14:02.835Z,52.61
2022-09-01T10:15:04.667Z,52.81
2022-09-01T10:16:03.680Z,53.80
2022-09-01T10:17:04.444Z,51.92
2022-09-01T10:19:02.870Z,53.31
2022-09-01T10:20:02.772Z,52.54
2022-09-01T10:21:02.879Z,53.50
2022-09-01T10:22:01.808Z,55.19
2022-09-01T10:23:03.830Z,52.81
2022-09-01T10:24:20.759Z,52.61
2022-09-01T10:25:02.271Z,51.82
2022-09-01T10:26:02.244Z,52.64
2022-09-01T10:27:01.937Z,52.31
2022-09-01T10:28:02.349Z,53.11
2022-09-01T10:29:02.537Z,54.60
2022-09-01T10:31:02.571Z,52.71
2022-09-01T10:32:30.397Z,52.71
2022-09-01T10:33:11.309Z,52.04
2022-09-01T10:34:02.898Z,52.64
2022-09-01T10:35:02.962Z,53.03
2022-09-01T10:36:06.960Z,54.39
2022-09-01T10:37:02.729Z,52.61
2022-09-01T10:38:02.789Z,51.82
2022-09-01T10:39:06.222Z,53.11
2022-09-01T10:40:03.223Z,54.10
2022-09-01T10:41:03.432Z,52.91
2022-09-01T10:42:03.335Z,52.61
2022-09-01T10:43:05.608Z,51.32
2022-09-01T10:44:02.836Z,51.62
2022-09-01T10:45:02.774Z,52.02
2022-09-01T10:46:05.860Z,52.31
2022-09-01T10:47:02.658Z,53.01
2022-09-01T10:48:03.253Z,52.81
2022-09-01T10:49:04.206Z,53.08
2022-09-01T10:50:07.878Z,52.29
2022-09-01T10:51:03.110Z,52.09
2022-09-01T10:52:07.398Z,51.99
2022-09-01T10:53:04.707Z,52.07
2022-09-01T10:54:02.746Z,51.47
2022-09-01T10:55:02.663Z,51.97
2022-09-01T10:56:04.892Z,50.58
2022-09-01T10:57:08.865Z,50.51
2022-09-01T10:58:08.445Z,50.71
2022-09-01T11:00:02.584Z,51.52
2022-09-01T11:01:41.090Z,51.79
2022-09-01T11:03:29.636Z,52.39
2022-09-01T11:04:02.749Z,53.38
2022-09-01T11:05:02.471Z,53.78
2022-09-01T11:06:13.560Z,51.89
2022-09-01T11:07:31.593Z,51.00
2022-09-01T11:08:14.719Z,51.89
2022-09-01T11:09:02.739Z,52.09
2022-09-01T11:10:11.151Z,52.09
2022-09-01T11:11:02.935Z,51.79
2022-09-01T11:12:02.897Z,52.69
2022-09-01T11:13:02.750Z,51.32
2022-09-01T11:14:02.683Z,53.11
2022-09-01T11:15:02.675Z,52.41
2022-09-01T11:16:02.686Z,52.71
2022-09-01T11:17:02.801Z,53.41
2022-09-01T11:18:02.248Z,52.81
2022-09-01T11:19:01.895Z,53.90
2022-09-01T11:20:02.521Z,53.90
2022-09-01T11:21:02.143Z,52.41
2022-09-01T11:22:02.533Z,53.11
2022-09-01T11:23:03.499Z,52.91
2022-09-01T11:24:02.615Z,52.31
2022-09-01T11:25:12.015Z,51.92
2022-09-01T11:26:32.652Z,52.91
2022-09-01T11:27:03.236Z,54.10
2022-09-01T11:28:03.152Z,54.27
2022-09-01T11:29:03.173Z,53.67
2022-09-01T11:30:03.108Z,54.47
2022-09-01T11:31:02.716Z,52.86
2022-09-01T11:32:02.776Z,52.76
2022-09-01T11:33:02.283Z,51.67
2022-09-01T11:34:02.204Z,52.07
2022-09-01T11:35:02.471Z,52.76
2022-09-01T11:36:02.568Z,55.41
2022-09-01T11:37:02.524Z,51.84
2022-09-01T11:38:02.637Z,51.32
2022-09-01T11:39:02.763Z,50.93
2022-09-01T11:40:02.758Z,53.20
2022-09-01T11:41:03.048Z,53.18
2022-09-01T11:42:04.643Z,53.25
2022-09-01T11:43:02.665Z,51.87
2022-09-01T11:44:02.721Z,52.53
2022-09-01T11:45:02.670Z,50.85
2022-09-01T11:46:02.751Z,51.92
2022-09-01T11:47:02.258Z,51.72
2022-09-01T11:48:02.897Z,51.99
2022-09-01T11:49:02.837Z,50.90
2022-09-01T11:50:02.954Z,50.78
2022-09-01T11:51:02.764Z,48.61
2022-09-01T11:52:02.883Z,50.98
2022-09-01T11:53:05.254Z,49.79
2022-09-01T11:54:02.073Z,50.59
2022-09-01T11:55:02.004Z,51.35
2022-09-01T11:56:02.065Z,51.03
2022-09-01T11:57:02.671Z,50.04
2022-09-01T11:58:03.087Z,49.73
2022-09-01T11:59:02.923Z,48.64
2022-09-01T12:00:02.991Z,48.14
2022-09-01T12:01:03.104Z,48.14
2022-09-01T12:02:03.093Z,46.28
2022-09-01T12:03:02.408Z,46.77
2022-09-01T12:04:02.670Z,46.67
2022-09-01T12:05:02.288Z,46.97
2022-09-01T12:06:02.392Z,46.97
2022-09-01T12:07:02.160Z,45.29
2022-09-01T12:08:02.781Z,46.67
2022-09-01T12:09:02.449Z,47.26
2022-09-01T12:10:02.544Z,48.13
2022-09-01T12:11:02.224Z,48.32
2022-09-01T12:12:02.453Z,47.31
2022-09-01T12:13:03.035Z,45.54
2022-09-01T12:14:03.393Z,45.74
2022-09-01T12:15:06.027Z,45.37
2022-09-01T12:16:19.301Z,46.97
2022-09-01T12:17:03.104Z,47.46
2022-09-01T12:18:01.961Z,46.28
2022-09-01T12:19:02.005Z,46.50
2022-09-01T12:20:01.977Z,47.28
2022-09-01T12:21:01.964Z,47.31
2022-09-01T12:22:02.195Z,46.62
2022-09-01T12:23:02.787Z,48.61
2022-09-01T12:24:02.547Z,48.61
2022-09-01T12:25:02.545Z,47.65
2022-09-01T12:26:02.575Z,49.03
2022-09-01T12:27:02.845Z,48.04
2022-09-01T12:28:02.619Z,48.63
2022-09-01T12:29:02.837Z,48.07
2022-09-01T12:30:02.990Z,49.25
2022-09-01T12:31:02.914Z,48.46
2022-09-01T12:32:02.939Z,49.77
2022-09-01T12:33:33.198Z,47.99
2022-09-01T12:34:03.394Z,48.68
2022-09-01T12:35:11.032Z,50.16
2022-09-01T12:36:03.539Z,49.18
2022-09-01T12:37:03.337Z,49.18
2022-09-01T12:38:03.080Z,49.27
2022-09-01T12:39:02.368Z,49.84
2022-09-01T12:40:02.651Z,51.72
2022-09-01T12:41:02.796Z,50.41
2022-09-01T12:42:02.870Z,48.91
2022-09-01T12:43:02.940Z,49.97
2022-09-01T12:44:02.978Z,48.59
2022-09-01T12:45:03.055Z,47.48
2022-09-01T12:46:04.625Z,46.99
2022-09-01T12:47:03.382Z,44.82
2022-09-01T12:48:02.542Z,45.31
2022-09-01T12:49:02.663Z,47.28
2022-09-01T12:50:03.417Z,48.37
2022-09-01T12:51:02.683Z,48.35
2022-09-01T12:52:02.557Z,46.94
2022-09-01T12:53:02.701Z,46.35
2022-09-01T12:54:04.736Z,45.84
2022-09-01T12:55:02.682Z,47.71
2022-09-01T12:56:02.724Z,47.69
2022-09-01T12:57:02.948Z,45.92
2022-09-01T12:58:03.222Z,46.19
2022-09-01T12:59:03.372Z,44.42
2022-09-01T13:00:03.393Z,44.05
2022-09-01T13:01:03.515Z,43.75
2022-09-01T13:02:03.360Z,44.93
2022-09-01T13:03:02.548Z,42.96
2022-09-01T13:04:02.543Z,44.66
2022-09-01T13:05:02.577Z,45.25
2022-09-01T13:06:02.578Z,44.76
2022-09-01T13:07:02.607Z,45.05
2022-09-01T13:08:02.442Z,44.48
2022-09-01T13:09:02.484Z,44.19
2022-09-01T13:10:02.507Z,44.09
2022-09-01T13:11:02.478Z,43.70
2022-09-01T13:12:06.748Z,44.11
2022-09-01T13:13:03.202Z,45.49
2022-09-01T13:14:03.148Z,44.23
2022-09-01T13:15:03.137Z,45.90
2022-09-01T13:16:03.256Z,44.65
2022-09-01T13:17:03.370Z,45.04
2022-09-01T13:18:03.457Z,45.43
2022-09-01T13:19:11.338Z,45.83
2022-09-01T13:20:03.619Z,45.26